Time;durP1;ratioP1;P1;durP2;ratioP2;P2;SDS_P1;SDS_P2;PMS_P1;PMS_P2;Temp;Humidity;BMP_temperature;BMP_pressure;BME280_temperature;BME280_humidity;BME280_pressure;Samples;Min_cycle;Max_cycle;Signal;HPM_P1;HPM_P2
2022/01/31 00:04:40;;;;;;;0.20;0.00;;;;;;;1.41;82.88;97178.25;1791129;79;26410;-52
2022/01/31 00:07:06;;;;;;;0.20;0.10;;;;;;;1.35;82.86;97184.74;1771640;80;20962;-54
2022/01/31 00:09:34;;;;;;;0.20;0.10;;;;;;;1.36;82.88;97189.58;1772655;80;20969;-53
2022/01/31 00:12:05;;;;;;;0.30;0.10;;;;;;;1.36;82.91;97182.95;1774895;80;21040;-53
2022/01/31 00:14:40;;;;;;;0.33;0.10;;;;;;;1.36;82.94;97181.13;1718903;80;21482;-53
2022/01/31 00:17:04;;;;;;;0.30;0.10;;;;;;;1.37;83.03;97183.31;1767306;80;20976;-52
2022/01/31 00:19:30;;;;;;;0.10;0.10;;;;;;;1.38;83.11;97176.61;1774263;80;20926;-53
2022/01/31 00:21:57;;;;;;;0.20;0.10;;;;;;;1.39;83.12;97178.33;1775792;80;22683;-53
2022/01/31 00:24:23;;;;;;;0.10;0.10;;;;;;;1.38;83.18;97181.91;1773146;80;20959;-54
2022/01/31 00:26:50;;;;;;;0.20;0.10;;;;;;;1.38;83.19;97177.94;1773555;80;21989;-54
2022/01/31 00:29:17;;;;;;;0.20;0.10;;;;;;;1.38;83.24;97166.48;1774818;80;21441;-54
2022/01/31 00:31:44;;;;;;;0.37;0.10;;;;;;;1.32;83.22;97172.97;1771690;80;20911;-54
2022/01/31 00:34:10;;;;;;;0.20;0.03;;;;;;;1.30;83.25;97176.62;1772527;80;22132;-52
2022/01/31 00:36:37;;;;;;;0.10;0.10;;;;;;;1.29;83.37;97166.95;1773243;80;20907;-53
2022/01/31 00:39:03;;;;;;;0.30;0.10;;;;;;;1.27;83.44;97169.71;1771502;79;21329;-53
2022/01/31 00:41:30;;;;;;;0.00;0.00;;;;;;;1.26;83.46;97171.11;1775740;80;20953;-54
2022/01/31 00:44:22;;;;;;;0.20;0.00;;;;;;;1.28;83.64;97169.21;1771331;80;21033;-53
2022/01/31 00:46:33;;;;;;;0.13;0.10;;;;;;;1.30;83.61;97170.00;1758492;79;21876;-52
2022/01/31 00:48:53;;;;;;;0.10;0.00;;;;;;;1.30;83.58;97160.72;1769901;80;21057;-53
2022/01/31 00:51:20;;;;;;;0.20;0.10;;;;;;;1.31;83.62;97154.02;1774451;80;20894;-53
2022/01/31 00:53:46;;;;;;;0.20;0.10;;;;;;;1.32;83.53;97157.06;1775319;80;20859;-52
2022/01/31 00:56:13;;;;;;;0.10;0.00;;;;;;;1.32;83.46;97154.41;1771676;80;21088;-53
2022/01/31 00:58:39;;;;;;;0.13;0.00;;;;;;;1.29;83.39;97148.41;1770694;80;21151;-52
2022/01/31 01:01:05;;;;;;;0.13;0.00;;;;;;;1.26;83.40;97151.23;1740356;80;21088;-54
2022/01/31 01:03:32;;;;;;;0.10;0.00;;;;;;;1.22;83.50;97150.98;1772342;80;21061;-54
2022/01/31 01:05:58;;;;;;;0.10;0.00;;;;;;;1.20;83.55;97152.86;1763326;80;21881;-52
2022/01/31 01:08:25;;;;;;;0.00;0.00;;;;;;;1.18;83.70;97154.75;1765736;80;22321;-52
2022/01/31 01:10:51;;;;;;;0.10;0.00;;;;;;;1.17;83.77;97150.39;1768495;80;21212;-52
2022/01/31 01:13:17;;;;;;;0.20;0.10;;;;;;;1.17;83.92;97148.59;1766851;80;21054;-53
2022/01/31 01:15:44;;;;;;;0.20;0.00;;;;;;;1.18;83.97;97154.29;1702712;83;21069;-53
2022/01/31 01:18:10;;;;;;;0.50;0.00;;;;;;;1.18;83.96;97148.13;1766429;80;21014;-52
2022/01/31 01:20:36;;;;;;;0.00;0.00;;;;;;;1.17;83.96;97144.63;1765375;80;21054;-53
2022/01/31 01:23:03;;;;;;;0.10;0.00;;;;;;;1.16;83.88;97153.97;1765816;80;22045;-54
2022/01/31 01:25:32;;;;;;;0.03;0.00;;;;;;;1.13;83.91;97158.48;1764104;80;21353;-54
2022/01/31 01:27:58;;;;;;;0.10;0.00;;;;;;;1.09;83.86;97156.95;1766671;80;21030;-53
2022/01/31 01:30:25;;;;;;;0.00;0.00;;;;;;;1.06;83.98;97156.23;1765462;80;21069;-53
2022/01/31 01:35:31;;;;;;;0.20;0.10;;;;;;;1.06;84.00;97158.88;1764319;80;21695;-53
2022/01/31 01:37:55;;;;;;;0.20;0.00;;;;;;;1.05;84.05;97158.48;1768609;80;21010;-53
2022/01/31 01:40:21;;;;;;;0.10;0.00;;;;;;;1.05;84.04;97152.72;1767176;80;21026;-54
2022/01/31 01:42:48;;;;;;;0.20;0.00;;;;;;;1.07;84.12;97157.95;1765398;80;21093;-53
2022/01/31 01:45:14;;;;;;;0.10;0.10;;;;;;;1.07;84.06;97159.27;1766859;80;21133;-54
2022/01/31 01:47:42;;;;;;;0.30;0.10;;;;;;;1.04;84.02;97147.50;1765607;80;21062;-54
2022/01/31 01:50:09;;;;;;;0.20;0.00;;;;;;;1.02;84.01;97155.52;1767747;80;21179;-54
2022/01/31 01:52:35;;;;;;;0.10;0.00;;;;;;;1.01;84.03;97155.16;1765740;80;21462;-54
2022/01/31 01:55:03;;;;;;;0.07;0.00;;;;;;;1.01;84.06;97164.89;1765261;80;21080;-53
2022/01/31 01:57:30;;;;;;;0.80;0.10;;;;;;;1.00;84.16;97162.72;1768110;80;21093;-53
2022/01/31 01:59:58;;;;;;;0.10;0.00;;;;;;;1.00;84.14;97166.69;1765710;80;21158;-54
2022/01/31 02:02:26;;;;;;;0.17;0.00;;;;;;;0.98;84.20;97171.66;1765526;80;22353;-53
2022/01/31 02:04:53;;;;;;;0.07;0.00;;;;;;;0.95;84.19;97164.72;1761912;80;21005;-52
2022/01/31 02:07:28;;;;;;;0.50;0.10;;;;;;;0.94;84.28;97170.09;1762578;79;21618;-54
2022/01/31 02:09:56;;;;;;;0.40;0.10;;;;;;;0.93;84.32;97164.43;1755976;80;21137;-52
2022/01/31 02:12:24;;;;;;;0.10;0.00;;;;;;;0.92;84.33;97165.36;1760929;80;21424;-53
2022/01/31 02:14:51;;;;;;;0.20;0.10;;;;;;;0.92;84.39;97173.31;1757211;80;21371;-53
2022/01/31 02:17:36;;;;;;;0.20;0.03;;;;;;;0.95;84.36;97171.81;1753639;80;22485;-53
2022/01/31 02:20:06;;;;;;;0.30;0.10;;;;;;;0.97;84.34;97169.95;1754688;80;21036;-53
2022/01/31 02:22:34;;;;;;;0.30;0.10;;;;;;;0.95;84.24;97170.02;1759304;80;21773;-54
2022/01/31 02:25:00;;;;;;;0.40;0.10;;;;;;;0.93;84.12;97171.05;1762024;80;22329;-53
2022/01/31 02:27:36;;;;;;;0.20;0.10;;;;;;;0.91;84.11;97173.77;1757582;80;21558;-53
2022/01/31 02:30:11;;;;;;;0.77;0.10;;;;;;;0.90;84.04;97176.49;1759368;80;21058;-53
2022/01/31 02:32:39;;;;;;;0.25;0.10;;;;;;;0.88;83.85;97173.92;1759360;80;25388;-52
2022/01/31 02:35:06;;;;;;;0.30;0.10;;;;;;;0.85;83.73;97172.73;1759025;80;21073;-52
2022/01/31 02:37:33;;;;;;;0.10;0.00;;;;;;;0.84;83.57;97171.52;1765820;80;21051;-53
2022/01/31 02:40:01;;;;;;;0.43;0.10;;;;;;;0.81;83.40;97176.48;1762354;80;20946;-53
2022/01/31 02:42:28;;;;;;;0.13;0.00;;;;;;;0.80;83.33;97167.30;1755166;80;21265;-53
2022/01/31 02:44:55;;;;;;;0.40;0.10;;;;;;;0.78;83.29;97171.33;1759346;80;21002;-53
2022/01/31 02:47:27;;;;;;;1.13;0.10;;;;;;;0.80;83.22;97174.77;1757441;79;21135;-54
2022/01/31 02:50:02;;;;;;;0.10;0.00;;;;;;;0.82;83.08;97174.23;1753780;80;21541;-54
2022/01/31 02:52:32;;;;;;;0.30;0.10;;;;;;;0.82;82.93;97170.27;1757637;80;21058;-53
2022/01/31 02:54:58;;;;;;;0.10;0.00;;;;;;;0.82;82.75;97171.59;1764440;80;20891;-54
2022/01/31 02:57:25;;;;;;;0.20;0.10;;;;;;;0.80;82.57;97169.94;1758681;80;21487;-54
2022/01/31 02:59:52;;;;;;;0.10;0.00;;;;;;;0.77;82.51;97173.59;1761002;80;20960;-54
2022/01/31 03:02:20;;;;;;;0.10;0.00;;;;;;;0.77;82.42;97167.47;1759155;80;22619;-54
2022/01/31 03:04:46;;;;;;;0.40;0.00;;;;;;;0.75;82.35;97168.86;1757807;80;21494;-51
2022/01/31 03:07:13;;;;;;;0.10;0.00;;;;;;;0.75;82.37;97178.12;1752105;80;21022;-50
2022/01/31 03:09:39;;;;;;;0.07;0.00;;;;;;;0.77;82.46;97172.27;1756748;80;21093;-52
2022/01/31 03:12:09;;;;;;;0.10;0.00;;;;;;;0.75;82.51;97174.16;1756002;80;21550;-51
2022/01/31 03:17:19;;;;;;;0.23;0.00;;;;;;;0.73;82.66;97172.05;1866787;75;26738;-51
2022/01/31 03:19:52;;;;;;;2.20;0.00;;;;;;;0.67;82.75;97170.57;1840455;77;21021;-55
2022/01/31 03:22:14;;;;;;;0.20;0.00;;;;;;;0.64;82.76;97173.83;1840672;77;21049;-55
2022/01/31 03:24:42;;;;;;;0.00;0.00;;;;;;;0.59;82.87;97182.01;1829883;77;20953;-55
2022/01/31 03:27:08;;;;;;;0.57;0.10;;;;;;;0.55;83.04;97179.11;1838042;77;20984;-54
2022/01/31 03:29:35;;;;;;;0.10;0.00;;;;;;;0.54;83.16;97182.68;1836694;77;21518;-53
2022/01/31 03:32:02;;;;;;;0.10;0.00;;;;;;;0.56;83.20;97177.31;1837179;77;21419;-53
2022/01/31 03:34:29;;;;;;;0.00;0.00;;;;;;;0.54;83.12;97184.00;1838575;77;21112;-54
2022/01/31 03:36:55;;;;;;;0.10;0.00;;;;;;;0.51;83.20;97185.47;1832579;77;21032;-55
2022/01/31 03:39:23;;;;;;;0.00;0.00;;;;;;;0.51;83.08;97185.47;1839131;76;20930;-54
2022/01/31 03:41:50;;;;;;;0.40;0.00;;;;;;;0.50;83.11;97177.62;1835301;77;20966;-53
2022/01/31 03:44:18;;;;;;;0.10;0.00;;;;;;;0.48;83.08;97182.98;1834374;77;21025;-54
2022/01/31 03:46:44;;;;;;;0.00;0.00;;;;;;;0.49;83.19;97187.36;1836617;77;21101;-53
2022/01/31 03:49:11;;;;;;;0.00;0.00;;;;;;;0.49;83.19;97186.03;1840263;77;21056;-55
2022/01/31 03:51:42;;;;;;;0.00;0.00;;;;;;;0.50;83.26;97191.72;1837129;77;20875;-52
2022/01/31 03:54:09;;;;;;;0.53;0.00;;;;;;;0.52;83.28;97192.94;1833661;77;21076;-53
2022/01/31 03:56:37;;;;;;;0.00;0.00;;;;;;;0.52;83.30;97195.13;1837240;77;21416;-51
2022/01/31 03:59:05;;;;;;;0.10;0.00;;;;;;;0.52;83.21;97196.45;1831194;77;21049;-53
2022/01/31 04:01:32;;;;;;;0.10;0.00;;;;;;;0.52;83.16;97204.85;1845136;77;21008;-53
2022/01/31 04:03:58;;;;;;;0.00;0.00;;;;;;;0.52;83.22;97196.91;1838824;77;21075;-52
2022/01/31 04:06:24;;;;;;;0.00;0.00;;;;;;;0.53;83.19;97200.81;1786043;78;21061;-52
2022/01/31 04:08:51;;;;;;;0.20;0.00;;;;;;;0.53;83.11;97196.84;1799614;78;21075;-53
2022/01/31 04:11:17;;;;;;;0.10;0.00;;;;;;;0.54;83.09;97197.70;1803648;78;21283;-55
2022/01/31 04:13:43;;;;;;;0.20;0.00;;;;;;;0.54;83.05;97201.20;1780541;79;21065;-55
2022/01/31 04:16:09;;;;;;;0.20;0.00;;;;;;;0.55;82.95;97204.72;1773747;79;21516;-51
2022/01/31 04:18:35;;;;;;;0.20;0.10;;;;;;;0.55;82.84;97201.60;1776295;79;21537;-51
2022/01/31 04:21:02;;;;;;;0.13;0.00;;;;;;;0.54;82.72;97209.15;1808228;78;21046;-50
2022/01/31 04:23:29;;;;;;;0.10;0.00;;;;;;;0.54;82.67;97214.45;1811086;78;22509;-54
2022/01/31 04:26:06;;;;;;;0.00;0.00;;;;;;;0.54;82.68;97216.23;1814320;78;21415;-52
2022/01/31 04:28:32;;;;;;;0.10;0.10;;;;;;;0.56;82.58;97218.34;1790280;78;21059;-52
2022/01/31 04:30:58;;;;;;;0.20;0.00;;;;;;;0.53;82.43;97215.38;1811808;78;20901;-52
2022/01/31 04:33:25;;;;;;;0.20;0.00;;;;;;;0.51;82.26;97217.23;1811074;78;21096;-51
2022/01/31 04:35:52;;;;;;;0.13;0.10;;;;;;;0.48;82.24;97220.51;1811774;78;21131;-52
2022/01/31 04:38:18;;;;;;;0.00;0.00;;;;;;;0.45;82.21;97220.17;1811041;78;21071;-51
2022/01/31 04:40:45;;;;;;;0.10;0.00;;;;;;;0.44;82.22;97211.84;1777452;79;21029;-53
2022/01/31 04:43:11;;;;;;;0.17;0.00;;;;;;;0.45;82.15;97225.47;1808882;78;21363;-52
2022/01/31 04:45:37;;;;;;;0.20;0.10;;;;;;;0.46;82.02;97219.71;1812016;78;21096;-51
2022/01/31 04:48:05;;;;;;;0.17;0.10;;;;;;;0.46;81.93;97228.98;1794330;78;22454;-52
2022/01/31 04:50:31;;;;;;;0.20;0.10;;;;;;;0.44;81.84;97236.98;1816755;78;21021;-52
2022/01/31 04:52:57;;;;;;;0.93;0.10;;;;;;;0.43;81.85;97231.76;1796141;78;21095;-53
2022/01/31 04:55:23;;;;;;;0.20;0.00;;;;;;;0.42;81.81;97235.36;1808731;78;21146;-52
2022/01/31 04:57:50;;;;;;;0.20;0.00;;;;;;;0.40;81.78;97234.58;1810586;78;21591;-55
2022/01/31 05:00:17;;;;;;;0.60;0.10;;;;;;;0.37;81.76;97247.48;1812268;78;21605;-53
2022/01/31 05:02:44;;;;;;;0.10;0.10;;;;;;;0.36;81.79;97248.41;1790188;78;21037;-51
2022/01/31 05:05:10;;;;;;;0.97;0.10;;;;;;;0.35;81.83;97246.68;1810341;78;21040;-55
2022/01/31 05:07:36;;;;;;;0.10;0.00;;;;;;;0.34;81.86;97255.08;1810353;78;21071;-53
2022/01/31 05:10:03;;;;;;;0.10;0.00;;;;;;;0.32;81.83;97252.14;1812124;78;21012;-55
2022/01/31 05:12:30;;;;;;;0.10;0.00;;;;;;;0.32;81.96;97254.32;1809020;78;21818;-52
2022/01/31 05:14:56;;;;;;;0.13;0.00;;;;;;;0.33;82.02;97253.40;1809199;78;21088;-54
2022/01/31 05:17:22;;;;;;;2.17;0.10;;;;;;;0.34;82.03;97260.88;1784014;79;20961;-51
2022/01/31 05:19:48;;;;;;;0.20;0.10;;;;;;;0.32;82.04;97260.08;1808632;78;21010;-54
2022/01/31 05:22:14;;;;;;;0.30;0.10;;;;;;;0.30;82.02;97264.58;1811002;78;21014;-55
2022/01/31 05:24:40;;;;;;;0.10;0.00;;;;;;;0.27;82.02;97256.30;1810106;78;21089;-53
2022/01/31 05:27:06;;;;;;;0.10;0.03;;;;;;;0.25;81.99;97271.42;1809911;78;21355;-52
2022/01/31 05:29:33;;;;;;;0.27;0.00;;;;;;;0.24;82.01;97270.16;1790709;78;21553;-52
2022/01/31 05:31:59;;;;;;;0.20;0.03;;;;;;;0.22;81.99;97276.84;1804552;78;21028;-53
2022/01/31 05:34:25;;;;;;;0.10;0.10;;;;;;;0.20;81.97;97281.80;1806575;78;21001;-55
2022/01/31 05:36:55;;;;;;;0.17;0.10;;;;;;;0.19;81.97;97273.47;1787634;78;21782;-52
2022/01/31 05:39:19;;;;;;;0.20;0.10;;;;;;;0.16;81.93;97272.30;1810472;78;21048;-54
2022/01/31 05:41:45;;;;;;;0.57;0.00;;;;;;;0.16;82.00;97274.95;1808231;78;21651;-54
2022/01/31 05:44:11;;;;;;;0.20;0.10;;;;;;;0.17;82.09;97280.14;1809582;78;21067;-54
2022/01/31 05:46:37;;;;;;;0.10;0.07;;;;;;;0.20;82.08;97282.66;1807082;78;21104;-53
2022/01/31 05:49:04;;;;;;;2.10;0.10;;;;;;;0.20;81.98;97291.06;1810416;78;21124;-53
2022/01/31 05:51:31;;;;;;;0.43;0.07;;;;;;;0.18;81.95;97292.91;1807402;78;21462;-52
2022/01/31 05:53:57;;;;;;;0.20;0.10;;;;;;;0.15;81.97;97289.10;1797185;78;21064;-54
2022/01/31 05:56:24;;;;;;;0.20;0.10;;;;;;;0.14;82.09;97286.92;1793516;78;21025;-53
2022/01/31 05:58:51;;;;;;;1.90;0.10;;;;;;;0.16;82.08;97296.11;1784805;80;21040;-54
2022/01/31 06:01:18;;;;;;;0.10;0.00;;;;;;;0.15;82.12;97282.03;1785292;79;21368;-54
2022/01/31 06:03:44;;;;;;;0.20;0.10;;;;;;;0.14;82.05;97293.53;1787661;79;21123;-55
2022/01/31 06:06:10;;;;;;;0.20;0.00;;;;;;;0.12;82.00;97293.20;1789120;79;21080;-52
2022/01/31 06:08:37;;;;;;;0.20;0.00;;;;;;;0.12;82.06;97299.35;1788448;79;21052;-52
2022/01/31 06:11:04;;;;;;;0.20;0.10;;;;;;;0.13;82.08;97302.39;1787135;78;21049;-51
2022/01/31 06:13:32;;;;;;;0.10;0.03;;;;;;;0.10;82.18;97306.48;1805229;78;21211;-52
2022/01/31 06:15:58;;;;;;;0.37;0.10;;;;;;;0.10;82.33;97299.02;1789927;78;21036;-54
2022/01/31 06:18:24;;;;;;;0.30;0.20;;;;;;;0.09;82.40;97299.94;1785069;78;21077;-54
2022/01/31 06:20:51;;;;;;;0.37;0.20;;;;;;;0.09;82.43;97299.94;1802810;78;21045;-54
2022/01/31 06:23:17;;;;;;;0.40;0.10;;;;;;;0.08;82.49;97300.44;1805862;78;21437;-53
2022/01/31 06:25:45;;;;;;;0.30;0.20;;;;;;;0.11;82.53;97300.27;1811065;78;22645;-55
2022/01/31 06:28:11;;;;;;;0.30;0.20;;;;;;;0.15;82.52;97306.30;1790666;78;20871;-55
2022/01/31 06:30:38;;;;;;;0.40;0.20;;;;;;;0.17;82.50;97307.09;1785643;78;20917;-53
2022/01/31 06:33:04;;;;;;;0.57;0.20;;;;;;;0.19;82.41;97307.86;1808632;78;20949;-52
2022/01/31 06:35:31;;;;;;;1.13;0.20;;;;;;;0.20;82.38;97322.34;1810627;78;21473;-53
2022/01/31 06:37:57;;;;;;;0.77;0.10;;;;;;;0.21;82.29;97312.63;1805138;78;21428;-52
2022/01/31 06:40:23;;;;;;;0.50;0.20;;;;;;;0.22;82.23;97320.95;1810525;78;20905;-53
2022/01/31 06:42:50;;;;;;;1.03;0.10;;;;;;;0.23;82.14;97331.94;1806008;78;20934;-53
2022/01/31 06:45:17;;;;;;;0.93;0.20;;;;;;;0.21;81.97;97332.00;1806986;78;21179;-54
2022/01/31 06:47:44;;;;;;;0.40;0.10;;;;;;;0.21;81.92;97329.81;1803057;78;21057;-55
2022/01/31 06:50:10;;;;;;;0.40;0.10;;;;;;;0.23;81.73;97331.94;1806434;78;22192;-54
2022/01/31 06:52:37;;;;;;;0.17;0.10;;;;;;;0.23;81.65;97330.61;1802844;78;21513;-53
2022/01/31 06:55:06;;;;;;;0.30;0.10;;;;;;;0.23;81.43;97324.00;1803697;78;21077;-55
2022/01/31 06:57:35;;;;;;;0.30;0.10;;;;;;;0.24;81.29;97339.81;1788658;78;20954;-53
2022/01/31 07:00:06;;;;;;;0.80;0.17;;;;;;;0.27;81.10;97336.14;1787847;78;21049;-52
2022/01/31 07:02:33;;;;;;;0.33;0.17;;;;;;;0.27;80.81;97341.44;1804974;78;21451;-51
2022/01/31 07:05:02;;;;;;;0.30;0.17;;;;;;;0.28;80.55;97343.16;1792876;78;21056;-52
2022/01/31 07:07:29;;;;;;;0.50;0.20;;;;;;;0.29;80.36;97344.88;1795771;78;21072;-51
2022/01/31 07:09:55;;;;;;;0.27;0.10;;;;;;;0.30;80.07;97348.78;1792574;78;21009;-52
2022/01/31 07:12:30;;;;;;;0.30;0.10;;;;;;;0.32;79.68;97348.26;1799988;78;21074;-53
2022/01/31 07:14:52;;;;;;;0.10;0.10;;;;;;;0.33;79.57;97359.23;1807701;78;22339;-51
2022/01/31 07:17:18;;;;;;;0.50;0.10;;;;;;;0.35;79.55;97351.20;1803991;78;21526;-51
2022/01/31 07:19:44;;;;;;;0.40;0.13;;;;;;;0.37;79.48;97355.51;1801063;78;21641;-51
2022/01/31 07:22:13;;;;;;;1.67;0.10;;;;;;;0.40;79.67;97357.17;1800706;78;21056;-53
2022/01/31 07:24:46;;;;;;;1.50;0.10;;;;;;;0.40;79.74;97353.66;1801497;78;21282;-53
2022/01/31 07:27:08;;;;;;;4.40;0.10;;;;;;;0.39;79.90;97356.77;1784422;78;20969;-52
2022/01/31 07:29:34;;;;;;;0.37;0.10;;;;;;;0.38;80.05;97359.88;1781614;78;21038;-52
2022/01/31 07:32:01;;;;;;;0.83;0.20;;;;;;;0.42;80.03;97363.72;1804393;78;21043;-51
2022/01/31 07:34:27;;;;;;;0.50;0.20;;;;;;;0.42;79.79;97367.69;1800675;78;21072;-51
2022/01/31 07:36:54;;;;;;;0.20;0.10;;;;;;;0.40;79.77;97370.86;1781138;79;21131;-52
2022/01/31 07:39:21;;;;;;;0.30;0.10;;;;;;;0.39;79.75;97373.97;1784147;78;21195;-54
2022/01/31 07:41:48;;;;;;;0.60;0.20;;;;;;;0.40;79.71;97367.75;1798100;78;21057;-53
2022/01/31 07:44:15;;;;;;;0.30;0.10;;;;;;;0.43;79.75;97374.20;1805902;78;20985;-51
2022/01/31 07:46:41;;;;;;;0.30;0.10;;;;;;;0.49;79.75;97377.06;1801699;78;21038;-54
2022/01/31 07:49:08;;;;;;;0.40;0.20;;;;;;;0.54;79.69;97383.84;1804548;78;21088;-51
2022/01/31 07:51:38;;;;;;;0.40;0.20;;;;;;;0.59;79.61;97379.69;1801494;78;21138;-51
2022/01/31 07:54:03;;;;;;;0.40;0.10;;;;;;;0.66;79.41;97383.77;1800106;78;21462;-51
2022/01/31 07:56:31;;;;;;;0.47;0.20;;;;;;;0.70;79.15;97384.86;1803360;78;21014;-55
2022/01/31 07:58:57;;;;;;;0.30;0.13;;;;;;;0.75;79.17;97391.28;1798620;78;21162;-51
2022/01/31 08:01:26;;;;;;;0.30;0.10;;;;;;;0.80;79.09;97396.34;1784360;78;21071;-52
2022/01/31 08:03:51;;;;;;;0.30;0.10;;;;;;;0.86;78.78;97388.11;1777205;78;21065;-52
2022/01/31 08:06:18;;;;;;;0.30;0.10;;;;;;;0.84;78.74;97387.34;1804866;78;21025;-51
2022/01/31 08:08:44;;;;;;;0.67;0.10;;;;;;;0.84;78.70;97383.38;1801959;78;21061;-53
2022/01/31 08:11:14;;;;;;;0.13;0.10;;;;;;;0.82;78.70;97391.84;1803945;78;21000;-51
2022/01/31 08:13:41;;;;;;;0.50;0.10;;;;;;;0.80;78.65;97408.27;1806997;78;21078;-54
2022/01/31 08:18:40;;;;;;;0.20;0.10;;;;;;;0.76;78.39;97407.56;1807500;78;21045;-53
2022/01/31 08:21:11;;;;;;;0.30;0.10;;;;;;;0.74;78.31;97418.69;1780170;80;21310;-55
2022/01/31 08:23:37;;;;;;;0.27;0.10;;;;;;;0.74;78.20;97423.98;1783315;79;21037;-53
2022/01/31 08:26:05;;;;;;;0.30;0.10;;;;;;;0.72;77.99;97429.34;1781598;79;21088;-54
2022/01/31 08:28:39;;;;;;;0.23;0.10;;;;;;;0.69;77.65;97429.47;1787419;78;21124;-54
2022/01/31 08:31:16;;;;;;;0.30;0.10;;;;;;;0.65;77.39;97425.27;1804526;78;22471;-52
2022/01/31 08:33:44;;;;;;;0.53;0.20;;;;;;;0.62;77.14;97430.69;1777302;80;21115;-54
2022/01/31 08:36:07;;;;;;;0.60;0.20;;;;;;;0.63;77.25;97431.55;1809788;78;21035;-52
2022/01/31 08:38:38;;;;;;;0.73;0.20;;;;;;;0.72;77.27;97432.45;1809051;78;21073;-53
2022/01/31 08:41:05;;;;;;;0.30;0.10;;;;;;;0.80;77.06;97430.77;1810120;78;21967;-54
2022/01/31 08:43:33;;;;;;;0.37;0.10;;;;;;;0.85;76.52;97436.73;1810996;78;21084;-52
2022/01/31 08:46:00;;;;;;;0.20;0.10;;;;;;;0.84;76.42;97441.64;1809515;78;21057;-52
2022/01/31 08:48:27;;;;;;;2.10;0.20;;;;;;;0.87;76.43;97442.80;1812706;78;20890;-53
2022/01/31 08:50:53;;;;;;;0.40;0.27;;;;;;;0.89;76.32;97445.78;1813288;78;21549;-53
2022/01/31 08:53:20;;;;;;;1.17;0.20;;;;;;;0.86;76.26;97447.23;1810171;78;21054;-54
2022/01/31 08:55:58;;;;;;;0.70;0.20;;;;;;;0.85;76.25;97455.28;1802203;78;21037;-53
2022/01/31 08:58:24;;;;;;;0.20;0.10;;;;;;;0.83;76.43;97455.80;1804710;78;21013;-52
2022/01/31 09:00:58;;;;;;;0.20;0.10;;;;;;;0.83;76.51;97459.78;1786158;78;21080;-52
2022/01/31 09:03:33;;;;;;;0.60;0.20;;;;;;;0.80;76.59;97459.91;1791714;78;21609;-50
2022/01/31 09:05:47;;;;;;;0.80;0.57;;;;;;;0.79;76.68;97459.51;1806387;78;21242;-54
2022/01/31 09:08:13;;;;;;;0.33;0.20;;;;;;;0.79;76.66;97460.83;1809997;78;21041;-54
2022/01/31 09:10:43;;;;;;;0.57;0.20;;;;;;;0.78;76.38;97470.56;1789595;78;21016;-54
2022/01/31 09:13:10;;;;;;;0.67;0.20;;;;;;;0.74;76.10;97470.33;1749131;79;21238;-54
2022/01/31 09:15:36;;;;;;;0.23;0.10;;;;;;;0.72;76.11;97467.73;1784646;79;21045;-54
2022/01/31 09:18:02;;;;;;;0.57;0.10;;;;;;;0.75;75.59;97472.91;1803678;78;22616;-54
2022/01/31 09:20:28;;;;;;;1.17;0.20;;;;;;;0.77;75.64;97465.36;1803533;78;21557;-50
2022/01/31 09:22:55;;;;;;;0.30;0.10;;;;;;;0.79;75.39;97471.42;1807251;78;21022;-52
2022/01/31 09:25:23;;;;;;;0.20;0.20;;;;;;;0.79;74.93;97476.72;1781233;78;20998;-53
2022/01/31 09:27:49;;;;;;;0.47;0.20;;;;;;;0.78;74.61;97470.56;1807884;78;20925;-52
2022/01/31 09:30:16;;;;;;;0.50;0.37;;;;;;;0.78;74.66;97473.67;1804365;78;21097;-53
2022/01/31 09:32:42;;;;;;;0.60;0.20;;;;;;;0.82;74.64;97484.53;1769803;80;20978;-51
2022/01/31 09:35:08;;;;;;;1.23;0.30;;;;;;;0.85;74.59;97484.41;1778624;80;20919;-51
2022/01/31 09:37:35;;;;;;;0.50;0.20;;;;;;;0.87;74.46;97483.84;1775837;78;20881;-52
2022/01/31 09:40:04;;;;;;;0.20;0.10;;;;;;;0.88;74.36;97491.73;1803887;78;20870;-51
2022/01/31 09:42:41;;;;;;;1.17;0.20;;;;;;;0.86;74.16;97492.72;1790908;78;21137;-52
2022/01/31 09:49:55;;;;;;;0.40;0.13;;;;;;;0.81;74.56;97496.05;1714284;79;22401;-54
2022/01/31 09:52:21;;;;;;;0.40;0.20;;;;;;;0.78;74.81;97498.37;1782456;79;21068;-52
2022/01/31 09:54:48;;;;;;;0.37;0.20;;;;;;;0.74;75.04;97495.02;1799288;78;21179;-53
2022/01/31 09:57:17;;;;;;;0.27;0.10;;;;;;;0.73;75.36;97501.23;1800176;78;21689;-54
2022/01/31 09:59:44;;;;;;;0.20;0.10;;;;;;;0.70;75.51;97501.83;1804923;78;21083;-52
2022/01/31 10:02:12;;;;;;;0.50;0.30;;;;;;;0.69;75.77;97506.26;1780672;79;21568;-53
2022/01/31 10:04:44;;;;;;;0.30;0.13;;;;;;;0.69;75.91;97503.61;1776692;80;21052;-52
2022/01/31 10:07:13;;;;;;;0.90;0.13;;;;;;;0.66;75.94;97509.52;1784911;79;21117;-51
2022/01/31 10:09:39;;;;;;;0.50;0.20;;;;;;;0.66;75.91;97514.82;1802635;78;21433;-56
2022/01/31 10:17:39;;;;;;;0.30;0.10;;;;;;;0.62;75.81;97503.49;1805027;78;21068;-56
2022/01/31 10:20:25;;;;;;;0.30;0.20;;;;;;;0.60;75.75;97511.09;1769682;80;21151;-52
2022/01/31 10:22:52;;;;;;;0.43;0.20;;;;;;;0.59;75.64;97504.97;1784271;79;20886;-53
2022/01/31 10:25:20;;;;;;;0.30;0.13;;;;;;;0.57;75.43;97513.44;1783578;79;20973;-53
2022/01/31 10:27:48;;;;;;;0.40;0.20;;;;;;;0.55;75.22;97507.80;1788349;78;22440;-53
2022/01/31 10:30:21;;;;;;;0.33;0.10;;;;;;;0.57;75.17;97506.81;1814023;78;21310;-50
2022/01/31 10:32:48;;;;;;;0.40;0.10;;;;;;;0.60;75.06;97516.39;1798041;78;21485;-51
2022/01/31 10:35:18;;;;;;;0.40;0.20;;;;;;;0.63;74.74;97508.33;1794802;78;21040;-50
2022/01/31 10:37:45;;;;;;;0.20;0.10;;;;;;;0.63;74.51;97521.56;1800090;78;21484;-50
2022/01/31 10:56:23;;;;;;;0.60;0.30;;;;;;;0.68;73.66;97537.63;1795122;78;21012;-51
2022/01/31 10:59:02;;;;;;;2.23;0.20;;;;;;;0.71;73.61;97532.67;1794908;78;21128;-52
2022/01/31 11:01:29;;;;;;;0.40;0.20;;;;;;;0.74;73.59;97527.25;1791978;78;21005;-53
2022/01/31 11:03:57;;;;;;;0.40;0.10;;;;;;;0.80;73.43;97531.41;1809523;78;21025;-55
2022/01/31 11:06:24;;;;;;;1.90;0.20;;;;;;;0.79;73.32;97521.73;1810236;78;21112;-53
2022/01/31 11:08:51;;;;;;;0.40;0.20;;;;;;;0.80;73.30;97539.35;1810004;78;21004;-55
2022/01/31 11:11:19;;;;;;;0.57;0.20;;;;;;;0.83;73.32;97532.61;1796299;78;21598;-54
2022/01/31 11:13:45;;;;;;;0.40;0.20;;;;;;;0.86;73.07;97526.69;1792042;78;20957;-53
2022/01/31 11:16:11;;;;;;;0.40;0.30;;;;;;;0.90;73.10;97539.34;1801711;78;21582;-52
2022/01/31 11:18:38;;;;;;;0.57;0.20;;;;;;;0.91;72.71;97526.50;1808309;78;21090;-52
2022/01/31 11:21:08;;;;;;;0.40;0.20;;;;;;;0.89;72.73;97533.65;1746265;78;21534;-52
2022/01/31 11:23:38;;;;;;;0.40;0.20;;;;;;;0.91;72.73;97526.03;1800021;78;21457;-52
2022/01/31 11:26:10;;;;;;;0.77;0.20;;;;;;;0.93;72.28;97532.13;1801931;78;21069;-53
2022/01/31 11:28:39;;;;;;;0.40;0.20;;;;;;;0.92;72.13;97546.30;1800437;78;21026;-49
2022/01/31 11:31:06;;;;;;;0.53;0.20;;;;;;;0.92;72.09;97542.33;1802267;78;21520;-54
2022/01/31 11:33:33;;;;;;;0.40;0.10;;;;;;;0.94;71.77;97537.80;1799111;78;21541;-53
2022/01/31 11:36:00;;;;;;;0.20;0.10;;;;;;;0.96;71.27;97551.84;1765893;80;21131;-53
2022/01/31 11:38:27;;;;;;;0.27;0.10;;;;;;;0.97;71.43;97548.73;1775022;80;21087;-53
2022/01/31 11:40:56;;;;;;;0.30;0.10;;;;;;;1.01;71.19;97550.33;1775136;80;21057;-52
2022/01/31 11:43:22;;;;;;;0.40;0.10;;;;;;;1.05;70.67;97548.78;1774789;79;21065;-51
2022/01/31 11:45:51;;;;;;;0.20;0.10;;;;;;;1.09;70.17;97552.16;1772823;79;21648;-51
2022/01/31 11:48:24;;;;;;;0.20;0.10;;;;;;;1.09;69.97;97558.33;1777514;80;21145;-50
2022/01/31 11:50:53;;;;;;;0.83;0.10;;;;;;;1.08;69.83;97548.66;1776263;79;21427;-51
2022/01/31 11:53:29;;;;;;;0.60;0.13;;;;;;;1.10;69.67;97553.89;1777756;80;20981;-51
2022/01/31 11:56:06;;;;;;;0.33;0.20;;;;;;;1.12;69.26;97563.47;1775191;80;22710;-54
2022/01/31 11:58:40;;;;;;;0.20;0.10;;;;;;;1.11;68.94;97566.18;1766719;80;21104;-53
2022/01/31 12:01:06;;;;;;;0.13;0.10;;;;;;;1.11;68.99;97568.83;1774058;80;22177;-51
2022/01/31 12:03:32;;;;;;;0.33;0.10;;;;;;;1.13;68.63;97573.60;1777456;78;21044;-49
2022/01/31 12:06:09;;;;;;;0.93;0.20;;;;;;;1.11;68.32;97574.12;1735805;79;21041;-53
2022/01/31 12:08:41;;;;;;;0.50;0.20;;;;;;;1.08;68.31;97568.53;1805611;78;20887;-51
2022/01/31 12:11:15;;;;;;;0.47;0.10;;;;;;;1.08;68.29;97570.31;1807439;78;20894;-51
2022/01/31 12:13:54;;;;;;;2.77;0.20;;;;;;;1.08;68.23;97583.56;1808481;78;20926;-51
2022/01/31 12:16:45;;;;;;;0.90;0.30;;;;;;;1.08;68.32;97585.75;1777735;80;20902;-56
2022/01/31 12:22:00;;;;;;;0.27;0.10;;;;;;;1.18;68.45;97577.39;1789458;79;26601;-54
2022/01/31 12:24:43;;;;;;;0.20;0.10;;;;;;;1.17;68.67;97587.13;1762032;80;21625;-54